createdAt,value
2022-10-09T00:01:55.409Z,11.10
2022-10-09T00:04:22.272Z,11.00
2022-10-09T00:06:49.002Z,10.90
2022-10-09T00:09:17.178Z,10.80
2022-10-09T00:11:43.977Z,10.90
2022-10-09T00:14:10.657Z,10.50
2022-10-09T00:16:37.467Z,10.70
2022-10-09T00:19:04.109Z,9.90
2022-10-09T00:21:32.673Z,10.60
2022-10-09T00:24:00.686Z,10.10
2022-10-09T00:26:28.468Z,10.30
2022-10-09T00:28:56.167Z,10.70
2022-10-09T00:31:23.286Z,10.10
2022-10-09T00:33:50.265Z,10.30
2022-10-09T00:36:22.250Z,11.40
2022-10-09T00:38:49.624Z,11.00
2022-10-09T00:41:19.389Z,10.60
2022-10-09T00:43:54.481Z,10.80
2022-10-09T00:46:27.708Z,11.10
2022-10-09T00:49:09.893Z,11.10
2022-10-09T00:51:38.070Z,11.30
2022-10-09T00:54:07.497Z,11.10
2022-10-09T00:56:34.642Z,12.10
2022-10-09T00:59:01.308Z,11.60
2022-10-09T01:01:28.100Z,12.00
2022-10-09T01:03:54.874Z,12.70
2022-10-09T01:06:57.149Z,13.70
2022-10-09T01:09:26.510Z,12.80
2022-10-09T01:12:11.225Z,13.80
2022-10-09T01:15:04.400Z,13.00
2022-10-09T01:17:54.798Z,14.10
2022-10-09T01:20:27.902Z,13.20
2022-10-09T01:23:16.957Z,12.50
2022-10-09T01:25:58.715Z,13.20
2022-10-09T01:28:29.098Z,12.80
2022-10-09T01:30:58.126Z,12.20
2022-10-09T01:33:24.840Z,12.70
2022-10-09T01:35:51.532Z,13.10
2022-10-09T01:38:18.206Z,13.50
2022-10-09T01:40:44.935Z,13.90
2022-10-09T01:43:11.903Z,14.80
2022-10-09T01:45:39.950Z,15.70
2022-10-09T01:48:06.970Z,14.80
2022-10-09T01:50:34.540Z,14.40
2022-10-09T01:53:06.509Z,14.50
2022-10-09T01:55:39.378Z,14.70
2022-10-09T01:58:32.225Z,14.50
2022-10-09T02:01:09.895Z,13.70
2022-10-09T02:03:36.697Z,13.70
2022-10-09T02:06:07.268Z,13.40
2022-10-09T02:08:34.143Z,14.00
2022-10-09T02:11:01.502Z,13.40
2022-10-09T02:13:28.179Z,13.20
2022-10-09T02:16:17.526Z,13.90
2022-10-09T02:18:46.311Z,13.90
2022-10-09T02:21:18.570Z,13.90
2022-10-09T02:26:44.037Z,14.00
2022-10-09T02:29:10.838Z,13.90
2022-10-09T02:31:39.625Z,13.80
2022-10-09T02:34:09.324Z,14.70
2022-10-09T02:36:36.739Z,14.30
2022-10-09T02:39:04.447Z,13.90
2022-10-09T02:41:32.194Z,13.70
2022-10-09T02:43:59.201Z,14.40
2022-10-09T02:46:25.897Z,13.40
2022-10-09T02:48:52.761Z,13.70
2022-10-09T02:51:19.715Z,13.40
2022-10-09T02:53:46.638Z,12.80
2022-10-09T02:56:13.489Z,12.90
2022-10-09T02:58:40.512Z,13.00
2022-10-09T03:01:07.168Z,12.40
2022-10-09T03:03:33.890Z,12.20
2022-10-09T03:06:09.357Z,12.10
2022-10-09T03:08:37.368Z,12.50
2022-10-09T03:11:04.559Z,12.90
2022-10-09T03:13:32.454Z,12.50
2022-10-09T03:16:25.979Z,12.30
2022-10-09T03:18:53.263Z,12.00
2022-10-09T03:21:22.208Z,12.00
2022-10-09T03:23:49.720Z,11.40
2022-10-09T03:26:18.712Z,11.80
2022-10-09T03:28:49.880Z,11.40
2022-10-09T03:31:33.453Z,11.10
2022-10-09T03:34:04.494Z,10.80
2022-10-09T03:36:31.144Z,11.50
2022-10-09T03:38:57.785Z,10.20
2022-10-09T03:41:24.727Z,9.70
2022-10-09T03:43:51.413Z,8.70
2022-10-09T03:46:18.229Z,8.90
2022-10-09T03:48:45.560Z,9.80
2022-10-09T03:51:12.505Z,10.10
2022-10-09T03:53:39.188Z,10.00
2022-10-09T03:56:06.536Z,9.40
2022-10-09T03:58:33.560Z,10.80
2022-10-09T04:01:00.479Z,9.30
2022-10-09T04:03:27.691Z,9.70
2022-10-09T04:05:54.598Z,9.70
2022-10-09T04:08:21.269Z,14.80
2022-10-09T04:10:47.882Z,11.70
2022-10-09T04:13:14.606Z,12.20
2022-10-09T04:15:49.905Z,10.50
2022-10-09T04:18:16.781Z,10.40
2022-10-09T04:20:53.904Z,20.40
2022-10-09T04:23:21.238Z,18.30
2022-10-09T04:25:48.068Z,76.40
2022-10-09T04:28:15.039Z,59.40
2022-10-09T04:30:42.100Z,35.90
2022-10-09T04:33:12.733Z,31.10
2022-10-09T04:35:44.275Z,29.90
2022-10-09T04:38:11.300Z,37.10
2022-10-09T04:40:38.029Z,41.70
2022-10-09T04:43:04.653Z,17.60
2022-10-09T04:45:31.459Z,11.80
2022-10-09T04:47:58.221Z,12.00
2022-10-09T04:50:25.118Z,12.20
2022-10-09T04:52:58.062Z,12.80
2022-10-09T04:55:24.705Z,21.90
2022-10-09T04:57:51.473Z,17.80
2022-10-09T05:00:18.267Z,15.20
2022-10-09T05:02:44.949Z,22.50
2022-10-09T05:05:11.641Z,22.20
2022-10-09T05:07:38.723Z,19.90
2022-10-09T05:10:06.379Z,16.90
2022-10-09T05:12:33.137Z,15.90
2022-10-09T05:14:59.918Z,16.00
2022-10-09T05:17:26.918Z,12.80
2022-10-09T05:19:53.863Z,13.50
2022-10-09T05:22:20.653Z,12.30
2022-10-09T05:24:47.322Z,13.50
2022-10-09T05:27:14.173Z,15.20
2022-10-09T05:29:41.005Z,12.50
2022-10-09T05:32:07.743Z,10.30
2022-10-09T05:34:34.889Z,9.20
2022-10-09T05:37:01.617Z,9.10
2022-10-09T05:39:28.305Z,8.40
2022-10-09T05:41:55.046Z,9.90
2022-10-09T05:44:21.915Z,13.40
2022-10-09T05:46:49.761Z,11.90
2022-10-09T05:49:16.785Z,11.20
2022-10-09T05:51:43.537Z,9.80
2022-10-09T05:54:14.428Z,10.90
2022-10-09T05:56:41.305Z,9.50
2022-10-09T05:59:13.929Z,10.60
2022-10-09T06:01:42.527Z,9.60
2022-10-09T06:04:22.141Z,9.70
2022-10-09T06:06:49.519Z,10.30
2022-10-09T06:09:17.862Z,10.50
2022-10-09T06:11:44.736Z,10.00
2022-10-09T06:14:12.752Z,9.30
2022-10-09T06:16:41.273Z,9.40
2022-10-09T06:19:08.781Z,9.40
2022-10-09T06:21:35.927Z,9.80
2022-10-09T06:24:03.974Z,9.80
2022-10-09T06:26:31.133Z,9.80
2022-10-09T06:28:59.183Z,9.90
2022-10-09T06:31:27.676Z,10.30
2022-10-09T06:33:54.877Z,9.60
2022-10-09T06:36:26.417Z,10.70
2022-10-09T06:38:53.717Z,10.50
2022-10-09T06:41:25.329Z,10.30
2022-10-09T06:44:01.249Z,10.00
2022-10-09T06:46:32.466Z,9.40
2022-10-09T06:49:00.541Z,9.80
2022-10-09T06:51:28.340Z,9.60
2022-10-09T06:53:57.066Z,10.00
2022-10-09T06:56:27.304Z,9.60
2022-10-09T06:58:54.575Z,9.50
2022-10-09T07:01:27.190Z,8.90
2022-10-09T07:03:56.201Z,8.20
2022-10-09T07:06:43.013Z,7.90
2022-10-09T07:09:11.787Z,8.00
2022-10-09T07:11:40.129Z,8.40
2022-10-09T07:14:07.963Z,8.40
2022-10-09T07:16:40.964Z,9.40
2022-10-09T07:19:11.198Z,9.30
2022-10-09T07:21:39.141Z,10.00
2022-10-09T07:24:06.334Z,9.60
2022-10-09T07:26:34.984Z,9.70
2022-10-09T07:29:01.838Z,8.80
2022-10-09T07:31:28.564Z,8.50
2022-10-09T07:33:56.909Z,8.30
2022-10-09T07:36:23.753Z,8.20
2022-10-09T07:38:51.827Z,7.80
2022-10-09T07:41:18.512Z,7.70
2022-10-09T07:43:45.252Z,7.50
2022-10-09T07:46:13.330Z,7.50
2022-10-09T07:48:40.242Z,7.60
2022-10-09T07:51:15.556Z,7.80
2022-10-09T07:53:42.247Z,7.90
2022-10-09T07:56:16.880Z,7.80
2022-10-09T07:58:43.911Z,7.90
2022-10-09T08:01:10.754Z,8.90
2022-10-09T08:03:38.308Z,8.60
2022-10-09T08:06:09.061Z,8.60
2022-10-09T08:08:36.250Z,8.20
2022-10-09T08:11:15.712Z,8.40
2022-10-09T08:13:42.722Z,7.60
2022-10-09T08:16:09.559Z,7.10
2022-10-09T08:18:36.480Z,6.90
2022-10-09T08:21:05.438Z,6.70
2022-10-09T08:23:32.172Z,6.50
2022-10-09T08:25:58.952Z,6.20
2022-10-09T08:28:26.197Z,6.80
2022-10-09T08:30:53.169Z,6.00
2022-10-09T08:33:23.418Z,5.90
2022-10-09T08:35:50.555Z,5.40
2022-10-09T08:38:37.606Z,5.80
2022-10-09T08:41:32.428Z,4.90
2022-10-09T08:44:22.374Z,4.80
2022-10-09T08:47:11.000Z,4.60
2022-10-09T08:49:47.336Z,3.50
2022-10-09T08:52:21.193Z,3.60
2022-10-09T08:54:47.950Z,2.90
2022-10-09T08:57:15.089Z,2.80
2022-10-09T08:59:42.195Z,2.80
2022-10-09T09:02:27.528Z,3.50
2022-10-09T09:05:03.566Z,2.80
2022-10-09T09:07:46.005Z,3.00
2022-10-09T09:10:31.428Z,3.20
2022-10-09T09:13:04.876Z,3.00
2022-10-09T09:15:49.033Z,3.20
2022-10-09T09:18:43.022Z,2.90
2022-10-09T09:21:16.774Z,3.00
2022-10-09T09:23:46.273Z,2.90
2022-10-09T09:26:16.223Z,2.60
2022-10-09T09:28:43.368Z,2.60
2022-10-09T09:31:36.753Z,2.60
2022-10-09T09:34:03.679Z,2.60
2022-10-09T09:36:35.701Z,2.70
2022-10-09T09:39:45.583Z,2.70
2022-10-09T09:41:49.919Z,2.30
2022-10-09T09:44:16.906Z,2.40
2022-10-09T09:46:44.184Z,2.60
2022-10-09T09:49:23.780Z,2.50
2022-10-09T09:51:53.624Z,2.90
2022-10-09T09:54:27.959Z,2.60
2022-10-09T09:57:12.888Z,2.90
2022-10-09T09:59:44.283Z,2.70
2022-10-09T10:02:14.329Z,2.70
2022-10-09T10:05:01.108Z,2.60
2022-10-09T10:07:35.159Z,2.60
2022-10-09T10:10:05.944Z,2.80
2022-10-09T10:12:32.860Z,2.50
2022-10-09T10:15:00.199Z,2.50
2022-10-09T10:17:29.489Z,2.80
2022-10-09T10:19:56.396Z,5.60
2022-10-09T10:22:25.226Z,2.70
2022-10-09T10:24:53.940Z,2.50
2022-10-09T10:27:27.746Z,2.30
2022-10-09T10:29:59.497Z,2.50
2022-10-09T10:32:57.933Z,2.50
2022-10-09T10:35:27.699Z,2.50
2022-10-09T10:38:21.550Z,3.60
2022-10-09T10:40:57.065Z,4.80
2022-10-09T10:43:43.488Z,5.50
2022-10-09T10:46:22.573Z,3.20
2022-10-09T10:48:50.022Z,2.60
2022-10-09T10:51:31.246Z,2.60
2022-10-09T10:54:08.524Z,2.60
2022-10-09T10:56:40.444Z,3.30
2022-10-09T11:00:19.076Z,3.30
2022-10-09T11:03:04.797Z,4.30
2022-10-09T11:05:36.997Z,4.40
2022-10-09T11:08:19.288Z,4.50
2022-10-09T11:11:13.111Z,4.60
2022-10-09T11:14:08.564Z,4.40
2022-10-09T11:16:43.325Z,3.90
2022-10-09T11:19:48.521Z,3.90
2022-10-09T11:22:42.648Z,3.90
2022-10-09T11:25:29.932Z,4.40
2022-10-09T11:28:07.534Z,3.50
2022-10-09T11:30:50.616Z,4.00
2022-10-09T11:33:51.763Z,3.60
2022-10-09T11:36:53.721Z,4.40
2022-10-09T11:39:23.992Z,3.60
2022-10-09T11:41:53.084Z,5.00
2022-10-09T11:44:37.670Z,4.40
2022-10-09T11:47:57.896Z,3.70
2022-10-09T11:51:00.708Z,5.20
2022-10-09T11:53:28.003Z,4.90
2022-10-09T11:56:02.560Z,7.00
2022-10-09T11:58:30.026Z,5.80
2022-10-09T12:00:58.034Z,4.90
2022-10-09T12:03:26.441Z,4.80
2022-10-09T12:06:08.550Z,5.60
2022-10-09T12:08:39.064Z,5.30
2022-10-09T12:11:14.321Z,5.80
2022-10-09T12:13:47.504Z,5.30
2022-10-09T12:16:32.960Z,6.30
2022-10-09T12:19:01.158Z,6.40
2022-10-09T12:21:35.648Z,6.70
2022-10-09T12:24:02.615Z,6.10
2022-10-09T12:26:30.243Z,6.70
2022-10-09T12:29:22.372Z,7.00
2022-10-09T12:32:15.974Z,7.50
2022-10-09T12:34:48.307Z,7.10
2022-10-09T12:37:20.721Z,7.70
2022-10-09T12:39:48.865Z,6.80
2022-10-09T12:42:23.834Z,7.30
2022-10-09T12:44:53.234Z,7.30
2022-10-09T12:47:28.131Z,7.70
2022-10-09T12:50:00.148Z,7.00
2022-10-09T12:52:27.731Z,7.50
2022-10-09T12:54:54.699Z,7.30
2022-10-09T12:57:24.053Z,7.60
2022-10-09T12:59:53.982Z,8.90
2022-10-09T13:02:21.004Z,10.30
2022-10-09T13:04:58.877Z,8.20
2022-10-09T13:07:31.417Z,7.80
2022-10-09T13:10:05.957Z,7.90
2022-10-09T13:12:33.146Z,8.20
2022-10-09T13:15:30.738Z,8.20
2022-10-09T13:17:57.824Z,8.50
2022-10-09T13:20:26.135Z,8.90
2022-10-09T13:23:03.397Z,8.90
2022-10-09T13:25:37.851Z,8.90
2022-10-09T13:28:07.309Z,9.20
2022-10-09T13:30:34.372Z,9.40
2022-10-09T13:33:01.410Z,9.30
2022-10-09T13:35:28.148Z,9.10
2022-10-09T13:37:55.437Z,9.20
2022-10-09T13:40:22.518Z,9.60
2022-10-09T13:42:54.943Z,9.00
2022-10-09T13:45:23.046Z,9.50
2022-10-09T13:47:50.940Z,9.30
2022-10-09T13:50:18.486Z,9.50
2022-10-09T13:52:45.799Z,9.70
2022-10-09T13:55:13.452Z,10.10
2022-10-09T13:57:40.269Z,9.60
2022-10-09T14:00:07.704Z,10.40
2022-10-09T14:02:40.578Z,10.80
2022-10-09T14:05:07.703Z,10.50
2022-10-09T14:07:34.816Z,10.20
2022-10-09T14:10:02.120Z,11.70
2022-10-09T14:12:28.892Z,11.30
2022-10-09T14:14:55.817Z,11.20
2022-10-09T14:17:22.694Z,10.90
2022-10-09T14:19:49.616Z,11.30
2022-10-09T14:22:17.831Z,13.30
2022-10-09T14:24:45.076Z,12.10
2022-10-09T14:27:12.076Z,11.60
2022-10-09T14:29:38.994Z,11.10
2022-10-09T14:32:06.321Z,11.40
2022-10-09T14:34:33.241Z,11.80
2022-10-09T14:37:00.187Z,11.30
2022-10-09T14:39:27.420Z,12.10
2022-10-09T14:44:51.129Z,12.10
2022-10-09T14:47:18.423Z,14.50
2022-10-09T14:49:45.305Z,14.20
2022-10-09T14:52:12.342Z,13.90
2022-10-09T14:54:39.608Z,15.00
2022-10-09T14:57:06.666Z,14.30
2022-10-09T14:59:33.784Z,14.10
2022-10-09T15:02:01.690Z,13.10
2022-10-09T15:04:28.649Z,12.60
2022-10-09T15:06:55.430Z,12.80
2022-10-09T15:09:22.409Z,13.00
2022-10-09T15:11:49.453Z,12.20
2022-10-09T15:14:16.503Z,13.00
2022-10-09T15:16:43.636Z,12.70
2022-10-09T15:19:10.716Z,14.00
2022-10-09T15:21:37.773Z,26.30
2022-10-09T15:24:05.141Z,24.30
2022-10-09T15:26:33.411Z,19.80
2022-10-09T15:29:05.594Z,16.00
2022-10-09T15:31:41.861Z,14.40
2022-10-09T15:34:24.239Z,15.40
2022-10-09T15:37:06.189Z,19.20
2022-10-09T15:39:33.288Z,18.00
2022-10-09T15:41:59.929Z,19.20
2022-10-09T15:44:26.641Z,17.30
2022-10-09T15:46:53.349Z,17.80
2022-10-09T15:49:20.012Z,17.50
2022-10-09T15:51:46.761Z,17.90
2022-10-09T15:54:14.747Z,17.90
2022-10-09T15:56:42.332Z,18.10
2022-10-09T15:59:12.897Z,20.70
2022-10-09T16:01:39.872Z,20.60
2022-10-09T16:04:06.583Z,20.70
2022-10-09T16:06:33.376Z,19.30
2022-10-09T16:09:01.114Z,17.50
2022-10-09T16:11:27.836Z,17.40
2022-10-09T16:13:54.750Z,17.50
2022-10-09T16:16:23.217Z,17.10
2022-10-09T16:18:50.037Z,17.50
2022-10-09T16:21:19.526Z,19.40
2022-10-09T16:23:46.344Z,18.40
2022-10-09T16:26:14.686Z,17.10
2022-10-09T16:28:41.602Z,17.10
2022-10-09T16:31:08.456Z,16.50
2022-10-09T16:33:35.500Z,18.20
2022-10-09T16:36:10.265Z,17.40
2022-10-09T16:38:37.861Z,17.40
2022-10-09T16:41:08.609Z,16.90
2022-10-09T16:43:36.935Z,17.50
2022-10-09T16:46:19.465Z,16.90
2022-10-09T16:48:46.782Z,18.80
2022-10-09T16:51:16.365Z,17.80
2022-10-09T16:53:43.252Z,19.00
2022-10-09T16:56:14.634Z,23.50
2022-10-09T16:58:42.579Z,24.50
2022-10-09T17:01:10.405Z,26.20
2022-10-09T17:03:40.608Z,28.20
2022-10-09T17:06:09.385Z,28.70
2022-10-09T17:08:36.254Z,24.40
2022-10-09T17:11:06.328Z,21.40
2022-10-09T17:13:33.114Z,18.40
2022-10-09T17:15:59.908Z,18.50
2022-10-09T17:18:26.954Z,19.60
2022-10-09T17:20:55.540Z,20.60
2022-10-09T17:23:24.405Z,22.90
2022-10-09T17:25:51.762Z,21.00
2022-10-09T17:28:18.908Z,21.50
2022-10-09T17:30:46.411Z,19.80
2022-10-09T17:33:18.886Z,19.90
2022-10-09T17:35:46.865Z,19.60
2022-10-09T17:38:13.585Z,20.10
2022-10-09T17:40:40.630Z,20.00
2022-10-09T17:43:08.472Z,20.00
2022-10-09T17:45:39.979Z,21.20
2022-10-09T17:48:06.913Z,23.20
2022-10-09T17:50:33.706Z,26.10
2022-10-09T17:53:00.948Z,27.50
2022-10-09T17:55:28.265Z,25.70
2022-10-09T17:57:55.509Z,23.90
2022-10-09T18:00:22.599Z,20.90
2022-10-09T18:02:49.862Z,22.30
2022-10-09T18:05:17.210Z,22.50
2022-10-09T18:07:44.213Z,20.60
2022-10-09T18:10:11.435Z,19.50
2022-10-09T18:12:38.389Z,21.10
2022-10-09T18:15:05.576Z,21.20
2022-10-09T18:17:34.503Z,20.90
2022-10-09T18:20:01.466Z,20.70
2022-10-09T18:22:28.596Z,19.60
2022-10-09T18:24:56.247Z,17.90
2022-10-09T18:27:26.107Z,16.90
2022-10-09T18:29:54.665Z,18.00
2022-10-09T18:32:21.894Z,22.10
2022-10-09T18:34:48.753Z,23.40
2022-10-09T18:37:15.575Z,23.60
2022-10-09T18:39:42.748Z,21.30
2022-10-09T18:42:10.053Z,20.00
2022-10-09T18:44:40.527Z,18.10
2022-10-09T18:47:08.649Z,19.50
2022-10-09T18:49:35.914Z,19.30
2022-10-09T18:52:02.967Z,18.30
2022-10-09T18:54:31.321Z,18.00
2022-10-09T18:56:59.169Z,18.00
2022-10-09T18:59:27.655Z,16.90
2022-10-09T19:01:54.845Z,16.40
2022-10-09T19:04:24.276Z,16.90
2022-10-09T19:06:52.435Z,15.90
2022-10-09T19:09:19.229Z,16.10
2022-10-09T19:11:46.874Z,16.40
2022-10-09T19:14:15.981Z,15.90
2022-10-09T19:16:43.287Z,15.20
2022-10-09T19:19:10.974Z,15.40
2022-10-09T19:21:39.652Z,14.70
2022-10-09T19:24:07.276Z,13.60
2022-10-09T19:26:35.318Z,13.60
2022-10-09T19:29:03.198Z,14.40
2022-10-09T19:31:37.528Z,13.90
2022-10-09T19:34:05.425Z,13.30
2022-10-09T19:36:37.393Z,12.70
2022-10-09T19:39:06.358Z,12.70
2022-10-09T19:41:34.416Z,11.70
2022-10-09T19:44:47.648Z,10.70
2022-10-09T19:47:15.051Z,10.20
2022-10-09T19:54:20.135Z,9.70
2022-10-09T19:56:46.920Z,10.00
2022-10-09T19:59:13.776Z,9.50
2022-10-09T20:01:41.713Z,9.00
2022-10-09T20:04:09.684Z,8.50
2022-10-09T20:06:40.660Z,8.60
2022-10-09T20:09:07.629Z,7.60
2022-10-09T20:11:34.813Z,7.70
2022-10-09T20:14:01.693Z,7.20
2022-10-09T20:16:31.999Z,6.50
2022-10-09T20:18:59.771Z,6.50
2022-10-09T20:21:26.661Z,7.10
2022-10-09T20:23:53.440Z,6.60
2022-10-09T20:26:20.827Z,6.70
2022-10-09T20:28:47.702Z,6.90
2022-10-09T20:31:17.926Z,7.10
2022-10-09T20:33:45.002Z,6.70
2022-10-09T20:36:22.183Z,6.20
2022-10-09T20:38:48.991Z,6.30
2022-10-09T20:41:16.021Z,6.00
2022-10-09T20:43:43.045Z,6.10
2022-10-09T20:46:13.454Z,5.30
2022-10-09T20:48:41.257Z,5.10
2022-10-09T20:51:07.937Z,4.60
2022-10-09T20:53:34.776Z,4.80
2022-10-09T20:56:06.833Z,4.60
2022-10-09T20:58:34.147Z,5.10
2022-10-09T21:01:03.066Z,4.10
2022-10-09T21:03:29.930Z,4.50
2022-10-09T21:05:56.546Z,4.00
2022-10-09T21:08:23.304Z,4.00
2022-10-09T21:10:50.351Z,4.00
2022-10-09T21:13:17.225Z,3.50
2022-10-09T21:15:45.057Z,3.80
2022-10-09T21:18:12.541Z,3.80
2022-10-09T21:20:40.171Z,3.40
2022-10-09T21:23:07.086Z,3.30
2022-10-09T21:25:33.819Z,3.20
2022-10-09T21:28:00.805Z,3.40
2022-10-09T21:30:28.195Z,3.50
2022-10-09T21:32:55.480Z,3.40
2022-10-09T21:35:22.967Z,3.40
2022-10-09T21:37:50.341Z,3.10
2022-10-09T21:40:17.913Z,3.20
2022-10-09T21:42:44.757Z,3.40
2022-10-09T21:45:12.982Z,3.30
2022-10-09T21:47:39.779Z,3.20
2022-10-09T21:50:07.175Z,3.50
2022-10-09T21:52:34.012Z,3.50
2022-10-09T21:55:00.690Z,3.50
2022-10-09T21:57:27.434Z,3.50
2022-10-09T21:59:54.115Z,3.40
2022-10-09T22:02:20.807Z,3.10
2022-10-09T22:04:47.658Z,3.60
2022-10-09T22:07:14.373Z,3.60
2022-10-09T22:09:41.228Z,3.30
2022-10-09T22:12:08.044Z,3.00
2022-10-09T22:14:34.842Z,3.20
2022-10-09T22:17:01.645Z,3.10
2022-10-09T22:19:28.333Z,3.20
2022-10-09T22:21:55.026Z,3.30
2022-10-09T22:24:25.879Z,3.30
2022-10-09T22:26:56.841Z,3.00
2022-10-09T22:29:24.559Z,3.00
2022-10-09T22:31:51.285Z,3.00
2022-10-09T22:34:18.553Z,2.80
2022-10-09T22:36:45.522Z,4.80
2022-10-09T22:39:12.751Z,3.00
2022-10-09T22:41:40.210Z,2.80
2022-10-09T22:44:08.081Z,2.60
2022-10-09T22:46:37.213Z,2.70
2022-10-09T22:49:04.627Z,2.70
2022-10-09T22:51:31.283Z,2.70
2022-10-09T22:53:58.266Z,2.30
2022-10-09T22:56:28.861Z,2.70
2022-10-09T22:58:55.763Z,2.70
2022-10-09T23:01:25.343Z,2.60
2022-10-09T23:03:52.173Z,2.60
2022-10-09T23:06:19.523Z,2.60
2022-10-09T23:08:47.293Z,2.50
2022-10-09T23:11:14.189Z,2.40
2022-10-09T23:13:41.138Z,2.30
2022-10-09T23:16:08.922Z,2.20
2022-10-09T23:18:35.831Z,2.30
2022-10-09T23:21:06.631Z,2.40
2022-10-09T23:23:34.240Z,2.20
2022-10-09T23:27:38.936Z,2.10
2022-10-09T23:30:08.628Z,2.00
2022-10-09T23:32:36.610Z,2.20
2022-10-09T23:36:14.868Z,2.10
2022-10-09T23:38:43.153Z,2.00
2022-10-09T23:41:16.083Z,2.10
2022-10-09T23:43:43.978Z,2.30
2022-10-09T23:46:18.858Z,1.90
2022-10-09T23:48:45.973Z,2.00
2022-10-09T23:51:14.097Z,1.80
2022-10-09T23:53:40.951Z,1.90
2022-10-09T23:56:21.503Z,2.00
2022-10-09T23:58:49.015Z,1.90
